Time;durP1;ratioP1;P1;durP2;ratioP2;P2;SDS_P1;SDS_P2;PMS_P1;PMS_P2;Temp;Humidity;BMP_temperature;BMP_pressure;BME280_temperature;BME280_humidity;BME280_pressure;Samples;Min_cycle;Max_cycle;Signal;HPM_P1;HPM_P2
2021/04/07 00:01:26;;;;;;;;;;;;;;;27.22;26.21;99158.16;5096638;28;1026;-32
2021/04/07 00:03:52;;;;;;;;;;;;;;;27.18;26.28;99153.38;5117241;28;778;-32
2021/04/07 00:06:17;;;;;;;;;;;;;;;27.19;26.30;99141.56;5116783;28;759;-40
2021/04/07 00:08:47;;;;;;;;;;;;;;;27.20;26.29;99145.91;5117170;28;843;-47
2021/04/07 00:11:13;;;;;;;;;;;;;;;27.06;26.39;99147.91;5116823;28;823;-43
2021/04/07 00:13:38;;;;;;;;;;;;;;;27.22;26.62;99150.03;5099190;28;1906;-42
2021/04/07 00:16:04;;;;;;;;;;;;;;;27.33;26.17;99153.03;5078425;28;1287;-37
2021/04/07 00:18:29;;;;;;;;;;;;;;;27.26;26.38;99153.94;5113529;28;1002;-34
2021/04/07 00:20:54;;;;;;;;;;;;;;;27.30;26.39;99162.41;5115473;28;814;-41
2021/04/07 00:23:19;;;;;;;;;;;;;;;27.20;26.52;99162.09;5117005;28;751;-40
2021/04/07 00:25:45;;;;;;;;;;;;;;;27.26;26.45;99166.59;5117149;28;754;-35
2021/04/07 00:28:11;;;;;;;;;;;;;;;27.25;26.33;99165.78;5117084;28;828;-34
2021/04/07 00:30:37;;;;;;;;;;;;;;;27.14;26.11;99174.63;5116664;28;813;-34
2021/04/07 00:33:02;;;;;;;;;;;;;;;27.29;26.24;99171.56;5103266;28;965;-35
2021/04/07 00:35:28;;;;;;;;;;;;;;;27.35;26.30;99177.94;5077802;28;1967;-48
2021/04/07 00:37:53;;;;;;;;;;;;;;;27.34;26.16;99177.09;5096481;28;796;-36
2021/04/07 00:40:19;;;;;;;;;;;;;;;27.41;25.96;99174.34;5096666;28;771;-34
2021/04/07 00:42:44;;;;;;;;;;;;;;;27.33;26.36;99180.03;5096176;28;728;-37
2021/04/07 00:45:10;;;;;;;;;;;;;;;27.38;26.03;99191.00;5096638;28;1264;-41
2021/04/07 00:47:35;;;;;;;;;;;;;;;27.40;26.03;99186.19;5105999;28;1022;-46
2021/04/07 00:50:01;;;;;;;;;;;;;;;27.26;26.13;99186.34;5115927;28;803;-34
2021/04/07 00:52:26;;;;;;;;;;;;;;;27.33;26.09;99177.34;5117099;28;779;-37
2021/04/07 00:54:52;;;;;;;;;;;;;;;27.34;26.09;99181.69;5116746;28;1978;-39
2021/04/07 00:57:17;;;;;;;;;;;;;;;26.59;25.93;99174.16;5116002;28;783;-46
2021/04/07 00:59:43;;;;;;;;;;;;;;;25.68;27.39;99177.69;5098821;28;875;-43
2021/04/07 01:02:08;;;;;;;;;;;;;;;25.23;27.92;99184.56;5095420;28;989;-49
2021/04/07 01:04:34;;;;;;;;;;;;;;;25.30;27.95;99177.34;5099220;28;841;-37
2021/04/07 01:06:59;;;;;;;;;;;;;;;25.50;27.73;99181.84;5082108;28;728;-33
2021/04/07 01:09:24;;;;;;;;;;;;;;;25.65;27.61;99181.63;5100112;28;874;-33
2021/04/07 01:11:50;;;;;;;;;;;;;;;26.04;26.86;99178.19;5101570;28;1127;-34
2021/04/07 01:14:15;;;;;;;;;;;;;;;25.76;27.37;99169.38;5120077;28;1964;-35
2021/04/07 01:16:40;;;;;;;;;;;;;;;26.02;27.21;99170.31;5100235;28;958;-33
2021/04/07 01:19:09;;;;;;;;;;;;;;;26.56;26.48;99168.41;5081345;28;810;-32
2021/04/07 01:21:35;;;;;;;;;;;;;;;26.75;26.18;99177.38;5099799;28;755;-34
2021/04/07 01:24:00;;;;;;;;;;;;;;;26.91;25.89;99189.50;5099886;28;747;-31
2021/04/07 01:26:26;;;;;;;;;;;;;;;27.08;25.54;99188.97;5099357;28;774;-35
2021/04/07 01:28:51;;;;;;;;;;;;;;;26.99;25.73;99183.03;5099994;28;870;-36
2021/04/07 01:31:16;;;;;;;;;;;;;;;25.82;27.00;99188.41;5099580;28;807;-36
2021/04/07 01:33:41;;;;;;;;;;;;;;;25.72;27.74;99183.47;5117866;28;1982;-44
2021/04/07 01:36:07;;;;;;;;;;;;;;;27.57;25.08;99188.31;5119668;28;772;-47
2021/04/07 01:38:32;;;;;;;;;;;;;;;27.61;24.77;99189.53;5120017;28;763;-33
2021/04/07 01:40:57;;;;;;;;;;;;;;;27.66;24.90;99199.66;5119351;28;716;-46
2021/04/07 01:43:24;;;;;;;;;;;;;;;28.43;23.96;99197.50;5101586;28;1422;-38
2021/04/07 01:45:49;;;;;;;;;;;;;;;28.69;23.69;99209.00;5101454;28;1440;-35
2021/04/07 01:48:16;;;;;;;;;;;;;;;28.95;23.42;99206.94;5103812;28;1025;-39
2021/04/07 01:50:41;;;;;;;;;;;;;;;29.26;23.08;99213.09;5099450;28;803;-34
2021/04/07 01:53:07;;;;;;;;;;;;;;;29.43;22.76;99205.13;5099596;28;747;-36
2021/04/07 01:55:32;;;;;;;;;;;;;;;29.68;22.46;99205.94;5098703;28;1918;-34
2021/04/07 01:57:58;;;;;;;;;;;;;;;29.86;22.15;99198.72;5099211;28;795;-33
2021/04/07 02:00:23;;;;;;;;;;;;;;;30.02;22.22;99202.56;5099138;28;810;-44
2021/04/07 02:02:48;;;;;;;;;;;;;;;30.24;21.96;99210.91;5110049;28;947;-33
2021/04/07 02:05:14;;;;;;;;;;;;;;;29.87;21.72;99216.63;5119262;28;775;-37
2021/04/07 02:07:40;;;;;;;;;;;;;;;29.19;22.63;99221.38;5119108;28;825;-45
2021/04/07 02:10:06;;;;;;;;;;;;;;;29.75;22.39;99222.06;5118836;28;772;-34
2021/04/07 02:12:31;;;;;;;;;;;;;;;29.67;22.18;99217.84;5110284;28;1122;-35
2021/04/07 02:14:56;;;;;;;;;;;;;;;29.15;22.68;99217.47;5098823;28;1906;-46
2021/04/07 02:17:22;;;;;;;;;;;;;;;29.13;22.83;99216.88;5106329;28;954;-35
2021/04/07 02:19:47;;;;;;;;;;;;;;;29.24;23.04;99217.13;5100251;28;1249;-36
2021/04/07 02:22:13;;;;;;;;;;;;;;;29.23;22.90;99212.78;5119106;28;882;-35
2021/04/07 02:24:39;;;;;;;;;;;;;;;29.03;22.79;99206.63;5118836;28;770;-35
2021/04/07 02:27:17;;;;;;;;;;;;;;;28.59;23.65;99201.47;5118716;28;777;-34
2021/04/07 02:29:43;;;;;;;;;;;;;;;28.63;23.33;99208.03;5118778;28;1509;-34
2021/04/07 02:32:08;;;;;;;;;;;;;;;28.93;23.49;99214.47;5112197;28;1024;-43
2021/04/07 02:34:34;;;;;;;;;;;;;;;29.09;23.05;99221.13;5097806;28;1967;-38
2021/04/07 02:37:00;;;;;;;;;;;;;;;28.89;23.62;99216.84;5097923;28;826;-45
2021/04/07 02:39:25;;;;;;;;;;;;;;;29.04;23.40;99213.72;5098076;28;811;-35
2021/04/07 02:41:50;;;;;;;;;;;;;;;29.16;23.10;99221.00;5097925;28;879;-50
2021/04/07 02:44:16;;;;;;;;;;;;;;;29.32;23.16;99224.91;5098317;28;815;-45
2021/04/07 02:46:41;;;;;;;;;;;;;;;29.07;23.25;99225.94;5099640;28;1174;-34
2021/04/07 02:49:06;;;;;;;;;;;;;;;28.93;23.51;99228.00;5118259;28;737;-34
2021/04/07 02:51:32;;;;;;;;;;;;;;;29.08;23.33;99233.81;5118722;28;755;-35
2021/04/07 02:53:57;;;;;;;;;;;;;;;29.24;23.26;99226.09;5118397;28;1979;-41
2021/04/07 02:56:22;;;;;;;;;;;;;;;29.24;23.02;99225.25;5118012;28;728;-35
2021/04/07 02:58:47;;;;;;;;;;;;;;;28.98;23.55;99222.75;5118339;28;750;-34
2021/04/07 03:01:13;;;;;;;;;;;;;;;29.03;23.59;99222.06;5118243;28;879;-34
2021/04/07 03:03:38;;;;;;;;;;;;;;;27.45;23.99;99226.88;5099308;28;1006;-34
2021/04/07 03:06:03;;;;;;;;;;;;;;;25.00;27.66;99223.50;5097830;28;786;-36
2021/04/07 03:08:29;;;;;;;;;;;;;;;23.36;30.43;99233.66;5097946;28;803;-43
2021/04/07 03:10:54;;;;;;;;;;;;;;;23.08;30.56;99235.31;5097229;28;775;-36
2021/04/07 03:13:19;;;;;;;;;;;;;;;23.68;29.61;99236.00;5112640;28;1151;-41
2021/04/07 03:15:45;;;;;;;;;;;;;;;24.06;29.01;99237.44;5117989;28;1897;-42
2021/04/07 03:18:10;;;;;;;;;;;;;;;24.66;28.02;99227.94;5103218;28;950;-34
2021/04/07 03:20:35;;;;;;;;;;;;;;;24.28;28.55;99235.50;5097569;28;803;-33
2021/04/07 03:23:00;;;;;;;;;;;;;;;24.42;28.55;99241.75;5097489;28;790;-33
2021/04/07 03:25:26;;;;;;;;;;;;;;;24.68;28.01;99228.59;5096221;28;886;-34
2021/04/07 03:27:51;;;;;;;;;;;;;;;24.99;27.55;99227.19;5097533;28;794;-34
2021/04/07 03:30:17;;;;;;;;;;;;;;;25.30;26.96;99217.72;5097467;28;839;-35
2021/04/07 03:32:42;;;;;;;;;;;;;;;25.29;26.72;99220.59;5107397;28;1010;-37
2021/04/07 03:35:08;;;;;;;;;;;;;;;25.24;26.65;99221.22;5117751;28;1966;-41
2021/04/07 03:37:33;;;;;;;;;;;;;;;25.23;26.68;99230.31;5117506;28;791;-36
2021/04/07 03:39:58;;;;;;;;;;;;;;;25.23;26.69;99227.63;5117434;28;882;-34
2021/04/07 03:42:24;;;;;;;;;;;;;;;25.31;26.67;99245.44;5117580;28;838;-34
2021/04/07 03:44:49;;;;;;;;;;;;;;;25.25;26.41;99248.97;5117410;28;830;-34
2021/04/07 03:47:14;;;;;;;;;;;;;;;24.74;27.25;99251.16;5109777;28;1288;-34
2021/04/07 03:49:39;;;;;;;;;;;;;;;24.55;27.48;99251.72;5097119;28;826;-35
2021/04/07 03:52:05;;;;;;;;;;;;;;;24.50;27.62;99256.03;5097003;28;755;-34
2021/04/07 03:54:30;;;;;;;;;;;;;;;24.59;27.64;99260.19;5096460;28;1909;-35
2021/04/07 03:56:55;;;;;;;;;;;;;;;24.82;27.56;99259.03;5096924;28;1490;-36
2021/04/07 03:59:21;;;;;;;;;;;;;;;24.64;27.77;99256.91;5078558;28;1136;-39
2021/04/07 04:01:46;;;;;;;;;;;;;;;24.63;27.89;99255.25;5096369;28;978;-39
2021/04/07 04:04:12;;;;;;;;;;;;;;;22.69;30.88;99241.97;5096884;28;775;-34
2021/04/07 04:06:39;;;;;;;;;;;;;;;22.61;30.95;99249.09;5096577;28;823;-34
2021/04/07 04:09:04;;;;;;;;;;;;;;;22.74;30.67;99250.22;5096334;28;843;-34
2021/04/07 04:11:29;;;;;;;;;;;;;;;23.07;29.87;99247.03;5078251;28;1120;-34
2021/04/07 04:13:55;;;;;;;;;;;;;;;22.95;30.02;99260.16;5096862;28;1909;-34
2021/04/07 04:16:20;;;;;;;;;;;;;;;23.09;30.06;99269.16;5097024;28;896;-34
2021/04/07 04:18:45;;;;;;;;;;;;;;;22.92;30.21;99260.53;5097287;28;993;-34
2021/04/07 04:21:10;;;;;;;;;;;;;;;23.27;29.70;99257.16;5096494;28;897;-34
2021/04/07 04:23:36;;;;;;;;;;;;;;;23.63;29.02;99250.00;5096853;28;759;-34
2021/04/07 04:26:01;;;;;;;;;;;;;;;23.63;28.95;99241.13;5096610;28;851;-34
2021/04/07 04:28:26;;;;;;;;;;;;;;;23.70;28.92;99244.69;5096399;28;848;-34
2021/04/07 04:30:51;;;;;;;;;;;;;;;23.62;28.97;99248.34;5096674;28;759;-34
2021/04/07 04:33:17;;;;;;;;;;;;;;;23.70;29.03;99267.00;5111526;28;939;-33
2021/04/07 04:35:42;;;;;;;;;;;;;;;24.79;27.43;99275.56;5118223;28;1979;-34
2021/04/07 04:38:08;;;;;;;;;;;;;;;25.53;26.65;99272.97;5121103;28;790;-34
2021/04/07 04:40:33;;;;;;;;;;;;;;;25.89;26.30;99275.44;5119830;28;855;-34
2021/04/07 04:42:58;;;;;;;;;;;;;;;26.38;25.58;99296.66;5120553;28;876;-34
2021/04/07 04:45:23;;;;;;;;;;;;;;;26.72;25.27;99310.84;5120292;28;1133;-34
2021/04/07 04:47:49;;;;;;;;;;;;;;;26.98;25.05;99305.47;5108841;28;965;-34
2021/04/07 04:50:14;;;;;;;;;;;;;;;27.25;24.79;99322.38;5100307;28;767;-35
2021/04/07 04:52:39;;;;;;;;;;;;;;;27.38;24.30;99321.44;5081912;28;1081;-35
2021/04/07 04:55:05;;;;;;;;;;;;;;;27.57;24.37;99329.59;5100179;28;1910;-36
2021/04/07 04:57:31;;;;;;;;;;;;;;;27.66;24.14;99330.13;5100272;28;844;-35
2021/04/07 04:59:56;;;;;;;;;;;;;;;27.85;23.83;99344.56;5100264;28;830;-35
2021/04/07 05:02:21;;;;;;;;;;;;;;;27.93;24.11;99348.84;5106873;28;950;-35
2021/04/07 05:04:47;;;;;;;;;;;;;;;28.04;23.60;99350.00;5120324;28;779;-36
2021/04/07 05:07:12;;;;;;;;;;;;;;;28.15;23.67;99358.41;5120414;28;751;-36
2021/04/07 05:09:37;;;;;;;;;;;;;;;28.29;23.35;99356.41;5120100;28;782;-35
2021/04/07 05:12:03;;;;;;;;;;;;;;;28.29;23.76;99354.53;5116081;28;1102;-36
2021/04/07 05:14:28;;;;;;;;;;;;;;;28.36;23.42;99376.94;5102397;28;1901;-35
2021/04/07 05:16:53;;;;;;;;;;;;;;;28.48;23.56;99360.78;5103442;28;955;-35
2021/04/07 05:19:18;;;;;;;;;;;;;;;28.48;23.26;99355.38;5120174;28;750;-35
2021/04/07 05:21:44;;;;;;;;;;;;;;;28.58;23.40;99356.69;5120073;28;790;-35
2021/04/07 05:24:09;;;;;;;;;;;;;;;28.59;23.16;99363.78;5119961;28;1445;-34
2021/04/07 05:26:35;;;;;;;;;;;;;;;27.70;24.26;99358.41;5120150;28;747;-33
2021/04/07 05:29:00;;;;;;;;;;;;;;;26.95;25.69;99351.78;5120424;28;795;-35
2021/04/07 05:31:25;;;;;;;;;;;;;;;28.03;24.50;99363.75;5119492;28;826;-36
2021/04/07 05:33:50;;;;;;;;;;;;;;;28.55;23.72;99376.09;5099037;28;1967;-40
2021/04/07 05:36:16;;;;;;;;;;;;;;;28.63;23.05;99370.38;5099519;28;766;-35
2021/04/07 05:38:41;;;;;;;;;;;;;;;28.59;22.98;99370.00;5098403;28;862;-35
2021/04/07 05:41:07;;;;;;;;;;;;;;;28.56;23.03;99370.44;5098259;28;772;-35
2021/04/07 05:43:32;;;;;;;;;;;;;;;28.65;23.00;99372.84;5099743;28;750;-37
2021/04/07 05:45:57;;;;;;;;;;;;;;;28.63;23.03;99372.28;5098840;28;1114;-34
2021/04/07 05:48:23;;;;;;;;;;;;;;;28.75;22.81;99373.16;5114478;28;966;-35
2021/04/07 05:50:49;;;;;;;;;;;;;;;28.76;22.60;99379.41;5119638;28;783;-35
2021/04/07 05:53:15;;;;;;;;;;;;;;;28.83;22.84;99378.25;5119195;28;1049;-35
2021/04/07 05:55:44;;;;;;;;;;;;;;;29.11;22.60;99373.34;5119145;28;1917;-34
2021/04/07 05:58:10;;;;;;;;;;;;;;;29.05;22.56;99372.38;5119332;28;795;-35
2021/04/07 06:00:35;;;;;;;;;;;;;;;28.85;22.92;99369.91;5118477;28;845;-35
2021/04/07 06:03:01;;;;;;;;;;;;;;;27.53;24.53;99358.09;5105565;28;982;-35
2021/04/07 06:05:29;;;;;;;;;;;;;;;27.55;24.62;99357.88;5098770;28;767;-35
2021/04/07 06:07:57;;;;;;;;;;;;;;;28.27;23.71;99363.91;5098130;28;786;-34
2021/04/07 06:10:24;;;;;;;;;;;;;;;28.60;23.02;99376.25;5098351;28;902;-35
2021/04/07 06:12:49;;;;;;;;;;;;;;;28.75;22.95;99364.19;5108927;28;1179;-35
2021/04/07 06:15:15;;;;;;;;;;;;;;;28.95;22.58;99377.47;5118119;28;1897;-33
2021/04/07 06:17:41;;;;;;;;;;;;;;;29.00;22.77;99383.06;5109881;28;1555;-37
2021/04/07 06:20:10;;;;;;;;;;;;;;;29.15;22.52;99379.09;5109295;28;1185;-37
2021/04/07 06:22:35;;;;;;;;;;;;;;;27.89;23.87;99379.25;5106951;28;1205;-35
2021/04/07 06:25:01;;;;;;;;;;;;;;;27.31;24.70;99393.56;5107371;28;1216;-35
2021/04/07 06:27:26;;;;;;;;;;;;;;;28.28;23.79;99400.72;5097880;28;1178;-35
2021/04/07 06:29:52;;;;;;;;;;;;;;;28.67;23.34;99408.63;5115375;28;1249;-35
2021/04/07 06:32:17;;;;;;;;;;;;;;;29.01;22.79;99413.66;5117415;28;1193;-35
2021/04/07 06:34:42;;;;;;;;;;;;;;;29.00;22.89;99422.81;5117499;28;1957;-34
2021/04/07 06:37:07;;;;;;;;;;;;;;;29.18;22.74;99419.25;5117288;28;1201;-35
2021/04/07 06:39:33;;;;;;;;;;;;;;;29.02;22.59;99426.97;5117698;28;1348;-36
2021/04/07 06:41:59;;;;;;;;;;;;;;;27.88;23.87;99432.47;5117824;28;1213;-35
2021/04/07 06:44:24;;;;;;;;;;;;;;;27.74;24.48;99434.44;5118169;28;802;-36
2021/04/07 06:46:49;;;;;;;;;;;;;;;28.54;23.47;99444.78;5117950;28;1062;-33
2021/04/07 06:49:14;;;;;;;;;;;;;;;27.84;23.98;99447.47;5099595;28;1503;-35
2021/04/07 06:51:40;;;;;;;;;;;;;;;27.23;24.99;99448.66;5099984;28;778;-35
2021/04/07 06:54:05;;;;;;;;;;;;;;;27.09;25.42;99452.47;5087727;28;1911;-39
2021/04/07 06:56:31;;;;;;;;;;;;;;;26.87;25.82;99448.16;5105724;27;1003;-38
2021/04/07 06:58:57;;;;;;;;;;;;;;;26.50;26.05;99447.81;5116195;28;816;-38
2021/04/07 07:01:22;;;;;;;;;;;;;;;26.42;26.50;99462.38;5099843;28;744;-38
2021/04/07 07:06:34;;;;;;;;;;;;;;;26.34;26.65;99463.41;5117207;28;613;-38
2021/04/07 07:09:18;;;;;;;;;;;;;;;26.17;26.63;99471.88;5117370;28;929;-38
2021/04/07 07:11:46;;;;;;;;;;;;;;;25.98;27.21;99470.84;5117458;28;1157;-38
2021/04/07 07:14:15;;;;;;;;;;;;;;;26.58;26.44;99479.97;5117779;28;1972;-35
2021/04/07 07:16:44;;;;;;;;;;;;;;;27.51;25.10;99485.25;5115753;28;946;-37
2021/04/07 07:19:19;;;;;;;;;;;;;;;28.01;24.42;99501.78;5097258;28;815;-40
2021/04/07 07:21:53;;;;;;;;;;;;;;;28.30;23.87;99515.72;5096971;28;767;-37
2021/04/07 07:24:45;;;;;;;;;;;;;;;28.53;23.48;99532.41;5097113;28;851;-41
2021/04/07 07:27:10;;;;;;;;;;;;;;;27.69;24.69;99550.44;5095366;28;1816;-43
2021/04/07 07:29:36;;;;;;;;;;;;;;;26.94;25.84;99571.44;5104879;28;1182;-44
2021/04/07 07:32:05;;;;;;;;;;;;;;;27.78;24.72;99580.75;5109246;28;1149;-38
2021/04/07 07:34:30;;;;;;;;;;;;;;;28.40;23.85;99590.13;5117443;28;1897;-38
2021/04/07 07:36:56;;;;;;;;;;;;;;;28.77;23.12;99594.81;5116943;28;834;-35
2021/04/07 07:39:22;;;;;;;;;;;;;;;28.83;22.95;99613.72;5117516;28;818;-37
2021/04/07 07:41:47;;;;;;;;;;;;;;;28.83;23.15;99629.94;5091952;28;1221;-35
2021/04/07 07:44:13;;;;;;;;;;;;;;;28.42;23.46;99639.44;5113820;28;1240;-36
2021/04/07 07:46:40;;;;;;;;;;;;;;;27.05;25.24;99645.53;5096677;28;1135;-35
2021/04/07 07:49:23;;;;;;;;;;;;;;;27.37;24.88;99648.41;5096840;28;767;-35
2021/04/07 07:51:49;;;;;;;;;;;;;;;28.37;23.67;99661.75;5096311;28;779;-35
2021/04/07 07:54:15;;;;;;;;;;;;;;;28.60;23.22;99657.63;5096742;28;1968;-35
2021/04/07 07:56:40;;;;;;;;;;;;;;;28.77;22.79;99662.47;5096488;28;887;-35
2021/04/07 07:59:06;;;;;;;;;;;;;;;28.94;22.68;99647.38;5096084;28;766;-35
2021/04/07 08:01:41;;;;;;;;;;;;;;;28.64;22.68;99653.44;5096766;28;974;-35
2021/04/07 08:04:13;;;;;;;;;;;;;;;27.00;25.02;99646.97;5117265;28;778;-35
2021/04/07 08:06:38;;;;;;;;;;;;;;;27.25;24.73;99642.81;5116622;28;851;-35
2021/04/07 08:09:04;;;;;;;;;;;;;;;28.19;23.58;99628.13;5098901;28;741;-35
2021/04/07 08:11:29;;;;;;;;;;;;;;;28.57;23.18;99633.72;5116608;28;736;-35
2021/04/07 08:13:54;;;;;;;;;;;;;;;28.72;22.58;99631.50;5096627;28;1964;-35
2021/04/07 08:16:20;;;;;;;;;;;;;;;28.83;22.87;99623.69;5096377;28;897;-34
2021/04/07 08:18:46;;;;;;;;;;;;;;;28.82;22.64;99622.06;5115598;28;951;-35
2021/04/07 08:21:15;;;;;;;;;;;;;;;27.50;24.09;99623.22;5116631;28;735;-35
2021/04/07 08:23:41;;;;;;;;;;;;;;;26.71;25.49;99621.25;5116965;28;787;-35
2021/04/07 08:26:06;;;;;;;;;;;;;;;27.87;24.05;99609.16;5117024;28;742;-35
2021/04/07 08:28:35;;;;;;;;;;;;;;;28.41;22.92;99621.56;5098125;28;818;-35
2021/04/07 08:31:00;;;;;;;;;;;;;;;28.71;22.84;99623.63;5116761;28;807;-35
2021/04/07 08:33:25;;;;;;;;;;;;;;;28.86;22.38;99631.41;5099595;28;958;-35
2021/04/07 08:35:51;;;;;;;;;;;;;;;28.62;22.75;99631.19;5095683;28;1905;-35
2021/04/07 08:38:16;;;;;;;;;;;;;;;27.39;24.29;99620.13;5096490;28;893;-35
2021/04/07 08:40:45;;;;;;;;;;;;;;;27.83;23.75;99624.16;5078097;28;868;-35
2021/04/07 08:43:11;;;;;;;;;;;;;;;27.70;24.11;99627.75;5096336;28;837;-35
2021/04/07 08:45:44;;;;;;;;;;;;;;;26.84;25.16;99639.31;5095812;28;1099;-37
2021/04/07 08:48:19;;;;;;;;;;;;;;;26.55;25.50;99642.22;5110250;28;1008;-35
2021/04/07 08:50:45;;;;;;;;;;;;;;;26.87;25.50;99660.47;5099509;28;830;-34
2021/04/07 08:53:11;;;;;;;;;;;;;;;27.01;25.16;99647.78;5116841;28;763;-33
2021/04/07 08:55:36;;;;;;;;;;;;;;;27.50;24.40;99675.38;5116851;28;1913;-34
2021/04/07 08:58:03;;;;;;;;;;;;;;;27.44;24.61;99684.34;5098078;28;1313;-35
2021/04/07 09:00:29;;;;;;;;;;;;;;;27.60;24.25;99685.72;5116287;28;743;-34
2021/04/07 09:02:55;;;;;;;;;;;;;;;27.56;24.07;99694.47;5116526;28;989;-34
2021/04/07 09:05:30;;;;;;;;;;;;;;;27.38;24.28;99696.78;5115952;28;767;-34
2021/04/07 09:07:55;;;;;;;;;;;;;;;27.54;24.64;99691.16;5115865;28;833;-35
2021/04/07 09:10:22;;;;;;;;;;;;;;;27.62;23.94;99702.56;5116073;28;838;-35
2021/04/07 09:12:47;;;;;;;;;;;;;;;27.55;23.83;99711.72;5116095;28;1115;-35
2021/04/07 09:15:18;;;;;;;;;;;;;;;27.06;25.04;99717.41;5116105;28;1909;-34
2021/04/07 09:17:45;;;;;;;;;;;;;;;26.65;25.20;99728.94;5104859;28;973;-35
2021/04/07 09:20:10;;;;;;;;;;;;;;;26.70;25.05;99736.44;5095891;28;788;-34
2021/04/07 09:22:44;;;;;;;;;;;;;;;26.32;25.66;99732.38;5096594;28;795;-33
2021/04/07 09:25:10;;;;;;;;;;;;;;;25.98;26.17;99737.63;5099346;28;888;-37
2021/04/07 09:27:35;;;;;;;;;;;;;;;26.24;26.14;99730.66;5099177;28;771;-34
2021/04/07 09:30:04;;;;;;;;;;;;;;;26.09;26.61;99743.47;5099533;28;755;-34
2021/04/07 09:32:29;;;;;;;;;;;;;;;25.94;26.70;99743.59;5108072;28;1166;-35
2021/04/07 09:34:55;;;;;;;;;;;;;;;25.85;26.56;99740.25;5100723;28;2027;-39
2021/04/07 09:37:21;;;;;;;;;;;;;;;25.97;26.33;99745.91;5108587;28;1185;-34
2021/04/07 09:39:47;;;;;;;;;;;;;;;25.94;26.64;99754.38;5109592;28;1198;-34
2021/04/07 09:42:12;;;;;;;;;;;;;;;25.80;26.63;99755.16;5107348;28;1280;-35
2021/04/07 09:44:37;;;;;;;;;;;;;;;25.73;26.99;99742.66;5109165;28;1130;-35
2021/04/07 09:47:04;;;;;;;;;;;;;;;25.90;26.83;99751.25;5109243;28;1293;-34
2021/04/07 09:49:30;;;;;;;;;;;;;;;25.75;26.82;99752.22;5090752;28;1197;-34
2021/04/07 09:51:56;;;;;;;;;;;;;;;25.44;27.08;99748.88;5119314;28;850;-34
2021/04/07 09:54:31;;;;;;;;;;;;;;;25.39;27.22;99759.38;5119392;28;1909;-34
2021/04/07 09:56:59;;;;;;;;;;;;;;;25.64;27.15;99783.22;5111903;28;1217;-35
2021/04/07 09:59:32;;;;;;;;;;;;;;;25.92;26.65;99785.03;5098973;28;762;-35
2021/04/07 10:01:58;;;;;;;;;;;;;;;25.56;27.35;99803.03;5099665;28;1006;-35
2021/04/07 10:04:30;;;;;;;;;;;;;;;25.54;27.07;99820.41;5108557;28;1090;-35
2021/04/07 10:06:55;;;;;;;;;;;;;;;26.62;25.61;99834.56;5109389;28;1213;-35
2021/04/07 10:09:27;;;;;;;;;;;;;;;27.33;24.61;99828.06;5107191;28;1442;-34
2021/04/07 10:11:52;;;;;;;;;;;;;;;27.77;24.09;99830.38;5109837;28;1169;-34
2021/04/07 10:14:18;;;;;;;;;;;;;;;28.05;23.73;99829.28;5106565;28;1901;-34
2021/04/07 10:16:43;;;;;;;;;;;;;;;28.18;23.44;99826.53;5110661;28;1185;-34
2021/04/07 10:19:09;;;;;;;;;;;;;;;27.19;24.27;99827.25;5098032;28;743;-36
2021/04/07 10:21:34;;;;;;;;;;;;;;;26.48;25.52;99830.13;5106573;28;1285;-37
2021/04/07 10:24:00;;;;;;;;;;;;;;;27.42;24.48;99826.00;5109503;28;1208;-34
2021/04/07 10:26:25;;;;;;;;;;;;;;;27.95;23.79;99837.84;5107766;28;1244;-34
2021/04/07 10:29:00;;;;;;;;;;;;;;;28.34;23.12;99827.16;5106287;28;1185;-34
2021/04/07 10:31:26;;;;;;;;;;;;;;;28.56;22.89;99843.91;5098099;28;775;-34
2021/04/07 10:34:13;;;;;;;;;;;;;;;28.73;22.61;99849.66;5097396;28;1906;-34
2021/04/07 10:36:40;;;;;;;;;;;;;;;28.85;22.58;99846.25;5108742;28;1135;-36
2021/04/07 10:39:15;;;;;;;;;;;;;;;28.97;22.44;99841.03;5107966;28;1351;-34
2021/04/07 10:42:01;;;;;;;;;;;;;;;27.97;23.16;99844.69;5107232;28;1233;-34
2021/04/07 10:44:27;;;;;;;;;;;;;;;27.17;24.57;99840.94;5107707;28;1174;-34
2021/04/07 10:46:52;;;;;;;;;;;;;;;28.26;23.29;99836.28;5108439;28;1337;-34
2021/04/07 10:49:18;;;;;;;;;;;;;;;28.67;22.47;99828.03;5097652;28;790;-35
2021/04/07 10:51:44;;;;;;;;;;;;;;;28.90;22.26;99813.13;5090999;28;1268;-34
2021/04/07 10:54:10;;;;;;;;;;;;;;;29.02;21.98;99811.41;5079581;28;1973;-36
2021/04/07 10:56:35;;;;;;;;;;;;;;;29.18;21.70;99820.88;5097098;28;818;-36
2021/04/07 10:59:03;;;;;;;;;;;;;;;28.04;22.98;99820.38;5097546;28;800;-37
2021/04/07 11:01:36;;;;;;;;;;;;;;;27.25;23.99;99813.75;5097673;28;1022;-36
2021/04/07 11:04:27;;;;;;;;;;;;;;;27.97;23.23;99814.97;5117677;28;830;-35
2021/04/07 11:06:58;;;;;;;;;;;;;;;28.62;22.14;99815.16;5118380;28;763;-34
2021/04/07 11:09:27;;;;;;;;;;;;;;;28.84;21.92;99821.06;5117727;28;775;-35
2021/04/07 11:11:54;;;;;;;;;;;;;;;29.05;21.64;99812.84;5114718;28;1147;-36
2021/04/07 11:14:19;;;;;;;;;;;;;;;29.19;21.66;99809.00;5079338;28;1893;-41
2021/04/07 11:16:44;;;;;;;;;;;;;;;28.62;22.15;99793.53;5099535;28;962;-40
2021/04/07 11:19:13;;;;;;;;;;;;;;;27.48;23.74;99777.38;5117132;28;858;-43
2021/04/07 11:21:39;;;;;;;;;;;;;;;27.98;23.29;99776.06;5117337;28;830;-42
2021/04/07 11:24:07;;;;;;;;;;;;;;;28.61;22.49;99754.00;5099194;28;1357;-34
2021/04/07 11:26:32;;;;;;;;;;;;;;;27.63;24.06;99768.22;5117643;28;824;-34
2021/04/07 11:28:58;;;;;;;;;;;;;;;27.22;24.70;99770.13;5098922;28;819;-36
2021/04/07 11:31:27;;;;;;;;;;;;;;;27.30;24.78;99777.19;5117448;28;822;-34
2021/04/07 11:33:57;;;;;;;;;;;;;;;27.17;24.66;99780.72;5090525;28;1914;-34
2021/04/07 11:39:21;;;;;;;;;;;;;;;26.63;25.71;99793.06;5117409;28;860;-34
2021/04/07 11:46:44;;;;;;;;;;;;;;;26.60;25.85;99809.66;5113586;28;1153;-33
2021/04/07 11:49:09;;;;;;;;;;;;;;;26.38;25.01;99809.78;5102322;28;946;-34
2021/04/07 11:51:39;;;;;;;;;;;;;;;26.29;25.77;99825.25;5095664;28;1071;-35
2021/04/07 11:54:05;;;;;;;;;;;;;;;26.16;26.00;99826.03;5109366;28;1957;-40
2021/04/07 11:56:30;;;;;;;;;;;;;;;26.17;25.94;99834.94;5116514;28;845;-40
2021/04/07 11:58:56;;;;;;;;;;;;;;;25.99;25.83;99838.16;5106414;28;1245;-35
2021/04/07 12:01:21;;;;;;;;;;;;;;;26.09;25.85;99840.50;5106130;28;814;-36
2021/04/07 12:03:47;;;;;;;;;;;;;;;25.99;26.07;99847.06;5106918;28;863;-31
2021/04/07 12:06:13;;;;;;;;;;;;;;;25.78;26.38;99845.25;5096043;28;1048;-38
2021/04/07 12:08:42;;;;;;;;;;;;;;;25.82;26.31;99857.31;5095843;28;936;-32
2021/04/07 12:11:07;;;;;;;;;;;;;;;25.82;26.34;99849.25;5078303;28;814;-34
2021/04/07 12:13:32;;;;;;;;;;;;;;;25.82;26.46;99848.41;5096680;28;859;-35
2021/04/07 12:15:58;;;;;;;;;;;;;;;25.76;26.50;99860.78;5099769;28;1906;-37
2021/04/07 12:18:23;;;;;;;;;;;;;;;25.88;26.10;99861.91;5094778;28;1247;-39
2021/04/07 12:20:48;;;;;;;;;;;;;;;26.14;25.63;99890.06;5095527;28;1032;-39
2021/04/07 12:23:14;;;;;;;;;;;;;;;25.90;25.94;99908.38;5096531;28;910;-39
2021/04/07 12:25:39;;;;;;;;;;;;;;;25.58;25.65;99899.78;5095935;28;802;-40
2021/04/07 12:28:05;;;;;;;;;;;;;;;25.75;25.83;99905.75;5096241;28;887;-39
2021/04/07 12:30:32;;;;;;;;;;;;;;;26.06;26.33;99910.97;5096155;28;835;-39
2021/04/07 12:32:57;;;;;;;;;;;;;;;27.11;24.79;99928.97;5110410;28;950;-38
2021/04/07 12:35:41;;;;;;;;;;;;;;;27.63;24.23;99946.53;5111910;28;1958;-40
2021/04/07 12:38:07;;;;;;;;;;;;;;;28.06;23.37;99944.50;5115558;28;1000;-39
2021/04/07 12:40:32;;;;;;;;;;;;;;;28.35;23.35;99964.88;5115797;28;856;-46
2021/04/07 12:42:58;;;;;;;;;;;;;;;28.24;23.08;99973.59;5116963;28;830;-39
2021/04/07 12:45:24;;;;;;;;;;;;;;;27.32;24.60;99977.63;5116134;28;1389;-37
2021/04/07 12:47:50;;;;;;;;;;;;;;;27.12;24.63;99968.44;5097737;28;1284;-39
2021/04/07 12:50:16;;;;;;;;;;;;;;;27.96;23.66;99977.38;5098150;28;1523;-44
2021/04/07 12:52:42;;;;;;;;;;;;;;;28.39;23.42;99983.38;5116340;28;790;-39
2021/04/07 12:55:10;;;;;;;;;;;;;;;28.66;22.73;99992.28;5115773;28;1968;-40
2021/04/07 12:57:37;;;;;;;;;;;;;;;28.81;22.93;99989.31;5116545;28;775;-42
2021/04/07 13:00:04;;;;;;;;;;;;;;;28.92;22.42;100008.66;5101802;28;1285;-39
2021/04/07 13:02:32;;;;;;;;;;;;;;;29.02;22.44;100028.03;5101213;28;1139;-38
2021/04/07 13:05:00;;;;;;;;;;;;;;;29.03;22.50;100018.84;5119891;28;879;-36
2021/04/07 13:07:30;;;;;;;;;;;;;;;29.12;22.47;100015.91;5119143;28;1070;-39
2021/04/07 13:09:58;;;;;;;;;;;;;;;29.23;22.17;100044.22;5101258;28;1369;-39